Time;durP1;ratioP1;P1;durP2;ratioP2;P2;SDS_P1;SDS_P2;PMS_P1;PMS_P2;Temp;Humidity;BMP_temperature;BMP_pressure;BME280_temperature;BME280_humidity;BME280_pressure;Samples;Min_cycle;Max_cycle;Signal;HPM_P1;HPM_P2
2022/04/12 00:00:19;;;;;;;4.57;1.50;;;;;;;10.23;47.36;99790.84;5075890;28;20740;-80
2022/04/12 00:02:45;;;;;;;4.28;1.50;;;;;;;10.17;47.65;99783.63;5057714;28;20024;-80
2022/04/12 00:05:11;;;;;;;3.92;1.50;;;;;;;10.13;47.64;99782.38;5077062;28;20036;-80
2022/04/12 00:07:39;;;;;;;5.18;1.60;;;;;;;10.02;47.47;99782.06;5060135;28;20029;-81
2022/04/12 00:10:05;;;;;;;4.13;1.77;;;;;;;10.10;47.88;99783.66;5078126;28;20037;-81
2022/04/12 00:12:30;;;;;;;4.13;1.48;;;;;;;10.17;47.71;99778.22;5078859;28;20097;-80
2022/04/12 00:14:55;;;;;;;4.57;1.80;;;;;;;10.23;47.02;99775.50;5087956;28;20104;-80
2022/04/12 00:20:05;;;;;;;6.20;1.65;;;;;;;10.29;46.50;99768.44;5086391;28;20039;-80
2022/04/12 00:22:31;;;;;;;;;;;;;;;10.39;46.51;99774.16;5076926;28;20088;-80
2022/04/12 00:24:59;;;;;;;6.63;1.60;;;;;;;10.42;46.45;99768.31;5075822;28;19951;-80
2022/04/12 00:27:24;;;;;;;5.10;1.45;;;;;;;10.36;46.74;99763.81;5075297;28;20593;-79
2022/04/12 00:29:50;;;;;;;5.40;1.50;;;;;;;10.34;46.75;99764.03;5075560;28;20032;-79
2022/04/12 00:32:15;;;;;;;4.37;1.50;;;;;;;10.40;47.05;99768.53;5074809;28;20029;-80
2022/04/12 00:34:40;;;;;;;4.17;1.40;;;;;;;10.45;46.92;99765.19;5057920;28;20368;-81
2022/04/12 00:37:06;;;;;;;4.93;1.77;;;;;;;10.45;46.89;99759.81;5075893;28;20086;-81
2022/04/12 00:39:34;;;;;;;5.53;1.70;;;;;;;10.42;47.13;99765.63;5075479;28;20033;-81
2022/04/12 00:42:01;;;;;;;4.97;1.63;;;;;;;10.41;46.82;99751.34;5075932;28;20035;-80
2022/04/12 00:44:27;;;;;;;4.70;1.75;;;;;;;10.44;46.87;99745.50;5076471;28;20044;-80
2022/04/12 00:46:53;;;;;;;4.45;1.92;;;;;;;10.39;46.67;99753.41;5057615;28;20394;-80
2022/04/12 00:49:18;;;;;;;4.73;1.67;;;;;;;10.35;46.60;99748.72;5075563;28;20037;-80
2022/04/12 00:51:45;;;;;;;3.87;1.73;;;;;;;10.42;47.13;99746.78;5075039;28;20046;-80
2022/04/12 00:54:10;;;;;;;4.53;1.92;;;;;;;10.41;46.44;99743.25;5077120;28;20380;-80
2022/04/12 00:56:36;;;;;;;4.50;1.63;;;;;;;10.38;47.10;99738.34;5080222;28;20047;-81
2022/04/12 00:59:03;;;;;;;4.65;1.77;;;;;;;10.40;47.22;99740.78;5080778;28;20151;-80
2022/04/12 01:01:28;;;;;;;4.53;1.40;;;;;;;10.36;47.32;99735.03;5081433;28;20028;-81
2022/04/12 01:03:54;;;;;;;4.55;1.80;;;;;;;10.37;47.27;99738.56;5081032;28;20037;-80
2022/04/12 01:06:19;;;;;;;3.53;1.60;;;;;;;10.40;47.24;99736.22;5081109;28;20174;-80
2022/04/12 01:08:45;;;;;;;4.18;1.85;;;;;;;10.27;46.70;99733.63;5081174;28;20025;-81
2022/04/12 01:11:12;;;;;;;5.78;1.67;;;;;;;10.22;47.90;99736.16;5079730;28;20429;-80
2022/04/12 01:13:37;;;;;;;4.35;1.73;;;;;;;10.26;47.69;99739.25;5080942;28;20039;-81
2022/04/12 01:16:06;;;;;;;5.67;1.87;;;;;;;10.17;47.55;99733.28;5080964;28;20032;-81
2022/04/12 01:18:31;;;;;;;5.97;1.67;;;;;;;10.13;47.97;99725.88;5081027;28;20262;-81
2022/04/12 01:20:56;;;;;;;4.33;1.50;;;;;;;10.12;47.60;99726.91;5081188;28;20020;-81
2022/04/12 01:23:30;;;;;;;5.63;1.70;;;;;;;10.06;48.03;99729.41;5077795;28;20058;-80
2022/04/12 01:25:56;;;;;;;4.95;1.77;;;;;;;10.15;48.56;99721.91;5075115;28;20033;-80
2022/04/12 01:28:21;;;;;;;4.07;1.73;;;;;;;10.10;48.50;99725.25;5079945;28;20482;-80
2022/04/12 01:30:46;;;;;;;5.33;1.90;;;;;;;10.22;47.54;99722.69;5080101;28;20315;-80
2022/04/12 01:33:12;;;;;;;3.53;1.37;;;;;;;10.12;48.01;99724.22;5079127;28;20032;-80
2022/04/12 01:35:37;;;;;;;3.93;1.47;;;;;;;10.04;47.85;99715.34;5079510;28;20417;-80
2022/04/12 01:38:03;;;;;;;4.10;1.53;;;;;;;10.11;48.09;99709.94;5078918;28;20028;-81
2022/04/12 01:40:29;;;;;;;4.00;1.60;;;;;;;10.10;47.75;99708.28;5079074;28;20056;-81
2022/04/12 01:42:54;;;;;;;3.42;1.50;;;;;;;10.22;47.84;99703.03;5060878;28;20463;-81
2022/04/12 01:45:21;;;;;;;5.53;1.77;;;;;;;10.16;47.54;99704.72;5061232;28;20043;-80
2022/04/12 01:47:46;;;;;;;3.75;1.67;;;;;;;10.20;47.84;99707.84;5061415;28;20270;-81
2022/04/12 01:50:11;;;;;;;4.83;1.73;;;;;;;10.17;47.77;99706.38;5063057;28;20030;-80
2022/04/12 01:52:37;;;;;;;3.27;1.30;;;;;;;10.21;47.56;99698.72;5080633;28;20027;-80
2022/04/12 01:55:04;;;;;;;3.53;1.30;;;;;;;10.17;47.70;99706.38;5081529;28;20493;-81
2022/04/12 01:57:30;;;;;;;4.57;1.60;;;;;;;10.04;48.15;99698.38;5081171;28;20029;-81
2022/04/12 01:59:57;;;;;;;4.43;1.42;;;;;;;10.04;48.45;99701.88;5081414;28;20085;-81
2022/04/12 02:02:22;;;;;;;5.72;2.08;;;;;;;10.12;47.99;99700.81;5079783;28;20036;-80
2022/04/12 02:04:47;;;;;;;5.53;1.80;;;;;;;10.15;47.86;99699.56;5087878;28;20032;-80
2022/04/12 02:07:12;;;;;;;4.80;1.63;;;;;;;10.26;47.45;99697.00;5095762;28;20094;-79
2022/04/12 02:09:38;;;;;;;4.00;1.27;;;;;;;10.21;47.44;99699.50;5095642;28;20032;-80
2022/04/12 02:12:04;;;;;;;4.00;1.70;;;;;;;10.33;47.70;99697.75;5096001;28;20025;-80
2022/04/12 02:14:29;;;;;;;4.65;1.63;;;;;;;10.40;47.62;99695.00;5096357;28;20028;-80
2022/04/12 02:16:54;;;;;;;5.53;1.40;;;;;;;10.29;47.41;99691.16;5097324;28;20033;-81
2022/04/12 02:19:20;;;;;;;5.03;1.57;;;;;;;10.30;47.84;99684.75;5097044;28;20032;-81
2022/04/12 02:21:45;;;;;;;3.70;1.40;;;;;;;10.30;48.00;99675.84;5095093;28;20032;-80
2022/04/12 02:24:10;;;;;;;4.50;1.83;;;;;;;10.41;47.42;99675.09;5092198;28;20044;-80
2022/04/12 02:26:35;;;;;;;4.67;1.60;;;;;;;10.32;47.32;99679.97;5084944;28;20040;-81
2022/04/12 02:29:01;;;;;;;4.00;1.30;;;;;;;10.21;47.55;99679.88;5083345;28;20028;-81
2022/04/12 02:31:27;;;;;;;4.30;1.53;;;;;;;10.20;48.43;99680.91;5082325;28;20052;-81
2022/04/12 02:33:52;;;;;;;5.90;1.73;;;;;;;10.14;47.77;99685.28;5082939;28;20067;-81
2022/04/12 02:36:17;;;;;;;3.47;1.40;;;;;;;10.16;48.43;99691.25;5081950;28;20515;-80
2022/04/12 02:38:42;;;;;;;4.60;1.60;;;;;;;10.20;48.11;99692.50;5080980;28;20028;-80
2022/04/12 02:41:08;;;;;;;3.53;1.40;;;;;;;10.20;48.19;99684.44;5081861;28;20033;-80
2022/04/12 02:43:34;;;;;;;3.80;1.40;;;;;;;10.14;48.49;99682.56;5080101;28;20047;-80
2022/04/12 02:45:59;;;;;;;4.15;1.65;;;;;;;10.26;47.91;99674.63;5061899;28;20036;-80
2022/04/12 02:48:24;;;;;;;5.10;1.95;;;;;;;10.31;47.59;99672.09;5079323;28;20040;-80
2022/04/12 02:50:50;;;;;;;3.53;1.30;;;;;;;10.35;47.89;99667.94;5079323;28;20040;-81
2022/04/12 02:53:15;;;;;;;5.20;1.77;;;;;;;10.41;47.57;99667.00;5078914;28;20278;-80
2022/04/12 02:55:40;;;;;;;4.93;1.40;;;;;;;10.52;47.35;99669.00;5078636;28;20032;-79
2022/04/12 02:58:06;;;;;;;4.00;1.40;;;;;;;10.57;46.56;99669.13;5077302;28;20029;-79
2022/04/12 03:00:31;;;;;;;4.60;1.50;;;;;;;10.64;46.26;99671.75;5061509;28;20023;-80
2022/04/12 03:02:56;;;;;;;5.40;1.33;;;;;;;10.84;46.53;99671.56;5079834;28;20261;-81
2022/04/12 03:05:22;;;;;;;4.93;1.47;;;;;;;10.85;45.87;99660.56;5079081;28;20032;-80
2022/04/12 03:07:48;;;;;;;4.85;1.60;;;;;;;10.96;45.43;99669.75;5077344;28;20028;-80
2022/04/12 03:10:14;;;;;;;3.78;1.20;;;;;;;10.99;45.41;99662.03;5077300;28;20040;-79
2022/04/12 03:12:39;;;;;;;3.70;1.33;;;;;;;11.10;45.29;99666.69;5077206;28;20458;-79
2022/04/12 03:15:07;;;;;;;4.90;1.80;;;;;;;11.11;45.07;99670.16;5077677;28;20451;-82
2022/04/12 03:17:32;;;;;;;5.80;1.70;;;;;;;11.14;44.85;99669.72;5077072;28;20375;-80
2022/04/12 03:19:57;;;;;;;5.30;1.87;;;;;;;11.19;44.78;99675.28;5059180;28;20032;-79
2022/04/12 03:22:23;;;;;;;4.40;1.90;;;;;;;11.23;44.47;99681.03;5076729;28;20032;-80
2022/04/12 03:24:48;;;;;;;3.73;1.43;;;;;;;11.21;44.48;99667.78;5078002;28;20086;-80
2022/04/12 03:27:13;;;;;;;8.73;1.70;;;;;;;11.28;44.35;99660.44;5076755;28;20024;-80
2022/04/12 03:29:38;;;;;;;4.33;1.20;;;;;;;11.30;44.77;99655.59;5077642;28;20036;-80
2022/04/12 03:32:05;;;;;;;3.70;1.30;;;;;;;11.29;44.27;99658.53;5076503;28;20368;-80
2022/04/12 03:34:31;;;;;;;3.95;1.67;;;;;;;11.33;44.84;99663.25;5077576;28;20044;-80
2022/04/12 03:36:58;;;;;;;5.55;1.77;;;;;;;11.27;45.01;99664.19;5059628;28;20029;-80
2022/04/12 03:39:25;;;;;;;4.43;1.30;;;;;;;11.29;44.90;99653.13;5078247;28;20049;-80
2022/04/12 03:41:51;;;;;;;3.35;1.38;;;;;;;11.25;45.11;99652.78;5079481;28;20086;-80
2022/04/12 03:44:17;;;;;;;4.78;1.73;;;;;;;11.29;44.95;99651.25;5077872;28;20043;-80
2022/04/12 03:46:42;;;;;;;4.90;1.77;;;;;;;11.31;44.91;99651.88;5078711;28;20044;-81
2022/04/12 03:49:10;;;;;;;3.57;1.60;;;;;;;11.30;44.63;99641.31;5079658;28;20028;-80
2022/04/12 03:51:35;;;;;;;4.30;1.30;;;;;;;11.29;45.22;99647.75;5079069;28;20028;-82
2022/04/12 03:54:02;;;;;;;3.95;1.55;;;;;;;11.38;44.71;99646.38;5078713;28;20083;-81
2022/04/12 03:56:28;;;;;;;4.00;1.52;;;;;;;11.32;44.96;99653.50;5062449;28;20075;-81
2022/04/12 03:58:53;;;;;;;4.18;1.67;;;;;;;11.19;45.49;99648.31;5076883;28;20375;-81
2022/04/12 04:01:18;;;;;;;4.75;1.73;;;;;;;11.23;45.32;99649.50;5076582;28;20131;-78
2022/04/12 04:03:44;;;;;;;3.63;1.63;;;;;;;11.25;45.21;99641.19;5076498;28;20166;-79
2022/04/12 04:06:11;;;;;;;3.78;1.45;;;;;;;11.16;45.27;99629.06;5076904;28;20082;-77
2022/04/12 04:08:36;;;;;;;5.18;1.63;;;;;;;11.24;46.01;99634.97;5077108;28;20119;-79
2022/04/12 04:11:02;;;;;;;5.10;1.60;;;;;;;11.26;45.44;99624.78;5082219;28;20060;-82
2022/04/12 04:13:30;;;;;;;3.07;1.30;;;;;;;11.29;45.24;99629.69;5078467;28;20094;-81
2022/04/12 04:15:55;;;;;;;3.95;1.27;;;;;;;11.30;45.30;99628.63;5079671;28;20040;-81
2022/04/12 04:18:21;;;;;;;6.03;1.58;;;;;;;11.34;45.18;99629.00;5082638;28;20448;-81
2022/04/12 04:20:46;;;;;;;4.70;1.67;;;;;;;11.37;44.97;99628.56;5062318;28;20033;-81
2022/04/12 04:23:12;;;;;;;4.40;1.70;;;;;;;11.31;45.66;99635.69;5078196;28;20266;-80
2022/04/12 04:25:38;;;;;;;4.93;1.63;;;;;;;11.26;45.49;99637.44;5078743;28;20028;-80
2022/04/12 04:28:05;;;;;;;5.47;1.58;;;;;;;11.22;45.42;99637.06;5078581;28;20451;-80
2022/04/12 04:30:33;;;;;;;4.38;1.58;;;;;;;11.19;46.32;99625.91;5077595;28;20040;-80
2022/04/12 04:33:00;;;;;;;4.15;1.50;;;;;;;11.16;45.67;99621.78;5079333;28;20035;-81
2022/04/12 04:35:25;;;;;;;4.97;1.85;;;;;;;11.11;46.16;99624.34;5078744;28;20033;-81
2022/04/12 04:37:51;;;;;;;3.57;1.53;;;;;;;11.17;46.69;99625.31;5062658;28;20044;-82
2022/04/12 04:40:21;;;;;;;5.30;1.53;;;;;;;11.22;46.01;99625.47;5083690;28;20025;-81
2022/04/12 04:42:49;;;;;;;4.70;1.73;;;;;;;11.16;45.67;99624.50;5083854;28;20060;-81
2022/04/12 04:45:15;;;;;;;4.30;1.70;;;;;;;11.12;46.50;99626.81;5083912;28;20029;-81
2022/04/12 04:47:59;;;;;;;3.72;1.40;;;;;;;11.14;45.79;99631.97;5088777;28;20107;-81
2022/04/12 04:50:32;;;;;;;5.63;1.35;;;;;;;11.17;46.09;99631.53;5090485;28;20050;-82
2022/04/12 04:53:00;;;;;;;5.18;1.70;;;;;;;11.17;46.00;99636.09;5065177;28;20386;-82
2022/04/12 04:55:25;;;;;;;3.65;1.30;;;;;;;11.15;45.86;99641.72;5078803;28;20482;-80
2022/04/12 04:57:56;;;;;;;3.72;1.42;;;;;;;11.15;46.45;99641.72;5078395;28;20032;-82
2022/04/12 05:00:25;;;;;;;5.30;1.50;;;;;;;11.14;46.08;99645.47;5078431;28;20080;-82
2022/04/12 05:02:51;;;;;;;4.10;1.60;;;;;;;11.09;46.81;99646.16;5076986;28;20082;-79
2022/04/12 05:05:16;;;;;;;;;;;;;;;11.07;47.20;99644.75;5078170;28;20119;-80
2022/04/12 05:07:46;;;;;;;3.67;1.65;;;;;;;11.08;47.46;99646.38;5078108;28;19946;-80
2022/04/12 05:10:14;;;;;;;3.92;1.58;;;;;;;11.03;47.04;99638.97;5078317;28;20085;-80
2022/04/12 05:12:39;;;;;;;3.47;1.40;;;;;;;11.02;47.26;99642.72;5077552;28;20024;-81
2022/04/12 05:15:05;;;;;;;4.18;1.50;;;;;;;11.01;47.69;99641.06;5079709;28;20078;-80
2022/04/12 05:17:30;;;;;;;5.28;1.40;;;;;;;11.06;47.63;99648.47;5080220;28;20092;-79
2022/04/12 05:19:59;;;;;;;3.87;1.23;;;;;;;11.07;47.59;99644.75;5078673;28;20044;-81
2022/04/12 05:22:25;;;;;;;4.85;1.63;;;;;;;11.02;47.96;99648.09;5077733;28;20119;-80
2022/04/12 05:24:51;;;;;;;3.03;1.13;;;;;;;11.05;48.49;99646.84;5076457;28;20040;-80
2022/04/12 05:27:17;;;;;;;5.85;1.23;;;;;;;11.06;47.73;99649.31;5059107;28;20044;-80
2022/04/12 05:29:43;;;;;;;4.07;1.05;;;;;;;11.10;47.94;99655.91;5058968;28;20039;-80
2022/04/12 05:32:09;;;;;;;6.03;1.17;;;;;;;11.14;48.53;99650.84;5059550;28;20120;-80
2022/04/12 05:34:35;;;;;;;;;;;;;;;11.18;48.03;99648.53;5077838;28;20040;-79
2022/04/12 05:37:00;;;;;;;5.05;1.25;;;;;;;11.23;48.39;99656.78;5058444;28;19924;-80
2022/04/12 05:39:25;;;;;;;2.53;0.97;;;;;;;11.20;49.22;99651.81;5077051;28;20028;-79
2022/04/12 05:41:51;;;;;;;3.57;1.17;;;;;;;11.32;48.41;99653.50;5076954;28;20104;-79
2022/04/12 05:44:17;;;;;;;8.60;1.20;;;;;;;11.35;48.26;99647.66;5058195;28;20032;-79
2022/04/12 05:46:43;;;;;;;2.13;0.90;;;;;;;11.37;48.38;99647.44;5075866;28;20471;-81
2022/04/12 05:49:08;;;;;;;4.67;1.20;;;;;;;11.40;48.38;99650.50;5076844;28;20036;-79
2022/04/12 05:51:33;;;;;;;3.03;1.10;;;;;;;11.51;47.86;99656.16;5076542;28;20055;-79
2022/04/12 05:53:58;;;;;;;3.60;1.20;;;;;;;11.49;48.52;99657.22;5076188;28;20031;-79
2022/04/12 05:56:24;;;;;;;3.67;1.37;;;;;;;11.54;47.90;99658.41;5075708;28;20025;-80
2022/04/12 05:58:49;;;;;;;4.07;1.13;;;;;;;11.60;48.21;99655.63;5075530;28;20482;-80
2022/04/12 06:01:14;;;;;;;3.17;1.37;;;;;;;11.73;48.25;99660.00;5057463;28;20029;-79
2022/04/12 06:03:39;;;;;;;3.93;1.20;;;;;;;11.75;47.98;99658.72;5075620;28;20494;-80
2022/04/12 06:06:05;;;;;;;3.40;1.10;;;;;;;11.76;47.67;99664.97;5076604;28;20067;-80
2022/04/12 06:08:30;;;;;;;3.20;1.10;;;;;;;11.78;48.03;99666.38;5075197;28;20481;-81
2022/04/12 06:10:55;;;;;;;3.50;1.30;;;;;;;11.87;47.63;99666.84;5075673;28;20514;-79
2022/04/12 06:13:23;;;;;;;3.37;1.00;;;;;;;11.87;47.67;99674.94;5078748;28;20031;-80
2022/04/12 06:15:49;;;;;;;5.30;1.23;;;;;;;11.83;47.97;99677.28;5060191;28;20773;-79
2022/04/12 06:18:17;;;;;;;3.43;1.00;;;;;;;11.76;48.07;99675.75;5079214;28;20032;-79
2022/04/12 06:20:43;;;;;;;3.92;1.33;;;;;;;11.95;47.61;99671.94;5060795;28;20043;-79
2022/04/12 06:23:08;;;;;;;3.55;1.17;;;;;;;12.01;46.93;99681.78;5060802;28;20032;-81
2022/04/12 06:25:34;;;;;;;4.25;1.55;;;;;;;11.99;46.46;99664.19;5078052;28;20060;-80
2022/04/12 06:27:59;;;;;;;3.42;1.00;;;;;;;12.03;46.70;99665.34;5077828;28;20079;-79
2022/04/12 06:30:27;;;;;;;3.00;1.03;;;;;;;12.07;46.19;99672.75;5078217;28;20456;-79
2022/04/12 06:32:53;;;;;;;3.92;1.42;;;;;;;12.04;46.14;99667.00;5078795;28;20063;-79
2022/04/12 06:35:18;;;;;;;;;;;;;;;12.19;46.23;99672.75;5078878;28;20429;-79
2022/04/12 06:37:46;;;;;;;3.53;1.48;;;;;;;12.21;45.98;99670.66;5080009;28;19913;-79
2022/04/12 06:40:15;;;;;;;3.42;1.10;;;;;;;12.34;46.14;99669.63;5080704;28;20081;-79
2022/04/12 06:42:41;;;;;;;3.75;1.17;;;;;;;12.43;45.79;99665.50;5079311;28;20379;-79
2022/04/12 06:45:08;;;;;;;4.25;1.02;;;;;;;12.58;45.08;99673.94;5079567;28;20029;-80
2022/04/12 06:47:33;;;;;;;3.28;1.25;;;;;;;12.60;45.29;99661.03;5079199;28;20032;-79
2022/04/12 06:49:59;;;;;;;4.03;1.48;;;;;;;12.71;45.27;99652.09;5079872;28;20390;-80
2022/04/12 06:52:24;;;;;;;4.80;1.48;;;;;;;12.76;44.26;99654.06;5062071;28;20378;-80
2022/04/12 06:54:50;;;;;;;2.92;1.33;;;;;;;12.85;44.77;99652.66;5080147;28;20434;-80
2022/04/12 06:57:16;;;;;;;4.13;1.25;;;;;;;12.92;44.37;99660.63;5080332;28;20029;-81
2022/04/12 06:59:41;;;;;;;3.10;1.13;;;;;;;12.91;44.76;99656.25;5080224;28;20025;-81
2022/04/12 07:02:07;;;;;;;4.72;1.20;;;;;;;13.05;43.81;99653.06;5078905;28;20039;-79
2022/04/12 07:04:32;;;;;;;3.58;1.20;;;;;;;13.09;43.61;99646.09;5079112;28;20463;-78
2022/04/12 07:06:59;;;;;;;4.93;1.23;;;;;;;13.16;43.75;99644.13;5077829;28;20087;-80
2022/04/12 07:09:27;;;;;;;3.88;1.42;;;;;;;13.36;43.54;99643.69;5078910;28;20115;-79
2022/04/12 07:11:53;;;;;;;5.20;1.30;;;;;;;13.38;44.04;99647.00;5078392;28;20028;-79
2022/04/12 07:14:18;;;;;;;;;;;;;;;13.47;43.32;99653.63;5060676;28;20471;-79
2022/04/12 07:16:45;;;;;;;3.53;1.23;;;;;;;13.59;42.87;99653.59;5078240;28;19919;-80
2022/04/12 07:19:10;;;;;;;3.72;1.38;;;;;;;13.66;42.96;99661.56;5079176;28;20636;-78
2022/04/12 07:21:36;;;;;;;3.77;1.23;;;;;;;13.67;42.73;99668.63;5078684;28;20036;-80
2022/04/12 07:24:05;;;;;;;5.70;1.60;;;;;;;13.81;42.62;99669.94;5060189;28;20115;-80
2022/04/12 07:26:31;;;;;;;3.63;1.20;;;;;;;13.86;42.61;99670.03;5077672;28;20045;-79
2022/04/12 07:28:56;;;;;;;4.18;1.48;;;;;;;13.95;43.17;99663.16;5077132;28;20032;-79
2022/04/12 07:31:22;;;;;;;3.23;1.40;;;;;;;14.09;42.38;99655.53;5077084;28;20077;-79
2022/04/12 07:33:47;;;;;;;2.97;1.00;;;;;;;14.32;42.04;99663.50;5060385;28;20285;-80
2022/04/12 07:36:14;;;;;;;1.60;0.82;;;;;;;14.41;42.30;99655.78;5078793;28;20110;-79
2022/04/12 07:38:40;;;;;;;5.18;1.20;;;;;;;14.46;41.84;99661.28;5077939;28;20032;-81
2022/04/12 07:41:05;;;;;;;2.28;0.95;;;;;;;14.60;42.06;99659.84;5078232;28;20035;-79
2022/04/12 07:43:33;;;;;;;3.90;1.05;;;;;;;14.80;41.27;99664.75;5078960;28;20053;-80
2022/04/12 07:45:58;;;;;;;2.57;0.80;;;;;;;14.93;40.98;99667.91;5059399;28;20031;-78
2022/04/12 07:48:23;;;;;;;6.40;1.40;;;;;;;14.97;41.10;99657.38;5077574;28;20116;-79
2022/04/12 07:51:01;;;;;;;4.03;1.23;;;;;;;15.11;40.50;99666.78;5076592;28;20429;-79
2022/04/12 07:53:26;;;;;;;3.45;1.13;;;;;;;15.23;40.42;99656.59;5078017;28;20630;-80
2022/04/12 07:55:51;;;;;;;2.93;1.00;;;;;;;15.19;40.07;99660.91;5075825;28;20032;-78
2022/04/12 07:58:17;;;;;;;2.58;1.00;;;;;;;15.27;40.14;99654.19;5078172;28;20020;-78
2022/04/12 08:00:42;;;;;;;2.38;1.00;;;;;;;15.32;39.82;99648.00;5058469;28;20104;-78
2022/04/12 08:03:07;;;;;;;4.35;1.20;;;;;;;15.19;39.99;99651.94;5057310;28;20031;-78
2022/04/12 08:05:34;;;;;;;2.70;1.42;;;;;;;15.35;40.27;99648.34;5075413;28;20028;-78
2022/04/12 08:08:00;;;;;;;3.40;1.10;;;;;;;15.33;40.17;99658.63;5074442;28;20032;-77
2022/04/12 08:10:26;;;;;;;2.10;1.00;;;;;;;15.26;40.93;99658.81;5075950;28;20389;-80
2022/04/12 08:12:52;;;;;;;2.17;0.80;;;;;;;15.33;39.73;99657.78;5074770;28;20114;-79
2022/04/12 08:15:18;;;;;;;2.17;0.90;;;;;;;15.32;39.92;99642.59;5057046;28;20044;-78
2022/04/12 08:17:44;;;;;;;2.13;0.70;;;;;;;15.52;38.98;99646.34;5058047;28;20066;-79
2022/04/12 08:20:09;;;;;;;1.83;0.80;;;;;;;15.62;39.64;99640.22;5075841;28;20036;-77
2022/04/12 08:22:36;;;;;;;1.83;0.90;;;;;;;15.52;39.49;99640.91;5073837;28;20028;-77
2022/04/12 08:25:03;;;;;;;1.85;0.70;;;;;;;15.61;39.67;99633.13;5074226;28;20211;-77
2022/04/12 08:27:28;;;;;;;2.00;0.70;;;;;;;15.70;39.32;99638.94;5073771;28;20028;-77
2022/04/12 08:29:54;;;;;;;2.47;0.70;;;;;;;15.76;39.59;99629.78;5073264;28;20154;-77
2022/04/12 08:32:19;;;;;;;;;;;;;;;15.99;39.17;99629.41;5073539;28;20029;-77
2022/04/12 08:34:45;;;;;;;0.75;0.50;;;;;;;15.83;39.36;99631.19;5073534;28;19959;-78
2022/04/12 08:37:11;;;;;;;1.20;0.60;;;;;;;15.99;39.01;99640.28;5053777;28;20127;-78
2022/04/12 08:39:37;;;;;;;1.70;0.68;;;;;;;16.09;39.53;99653.97;5057235;28;20036;-79
2022/04/12 08:42:04;;;;;;;2.05;0.75;;;;;;;16.04;39.43;99637.59;5073908;28;20040;-76
2022/04/12 08:44:31;;;;;;;1.60;0.63;;;;;;;16.27;39.14;99641.88;5073308;28;20458;-76
2022/04/12 08:46:58;;;;;;;1.77;0.70;;;;;;;16.40;38.57;99629.69;5079281;28;20080;-78
2022/04/12 08:49:24;;;;;;;1.95;0.75;;;;;;;16.37;38.69;99641.91;5063428;28;20074;-77
2022/04/12 08:51:50;;;;;;;2.42;1.35;;;;;;;16.43;39.08;99635.44;5082768;28;20108;-78
2022/04/12 08:54:22;;;;;;;2.78;0.90;;;;;;;16.42;38.88;99647.41;5081984;28;20066;-78
2022/04/12 08:56:49;;;;;;;3.78;1.33;;;;;;;16.42;38.94;99636.53;5082401;28;20115;-79
2022/04/12 08:59:16;;;;;;;1.73;0.70;;;;;;;16.49;38.51;99639.00;5063895;28;20024;-78
2022/04/12 09:01:42;;;;;;;4.10;1.63;;;;;;;16.57;38.79;99635.78;5062196;28;20073;-78
2022/04/12 09:04:08;;;;;;;;;;;;;;;16.78;38.64;99623.16;5080380;28;20047;-76
2022/04/12 09:06:34;;;;;;;2.22;0.80;;;;;;;16.86;38.59;99631.63;5072938;28;20337;-77
2022/04/12 09:09:12;;;;;;;;;;;;;;;16.90;37.47;99635.44;5073852;28;20052;-76
2022/04/12 09:11:54;;;;;;;2.92;0.98;;;;;;;17.00;37.58;99640.13;5073672;28;19912;-77
2022/04/12 09:14:20;;;;;;;4.25;1.08;;;;;;;17.13;37.96;99625.19;5072896;28;20055;-78
2022/04/12 09:16:46;;;;;;;2.42;0.93;;;;;;;17.30;37.58;99620.34;5056060;28;20025;-77
2022/04/12 09:19:12;;;;;;;2.13;0.80;;;;;;;17.44;36.85;99629.63;5055614;28;20138;-77
2022/04/12 09:21:46;;;;;;;2.22;0.80;;;;;;;17.55;37.42;99627.78;5073342;28;20032;-76
2022/04/12 09:24:21;;;;;;;2.17;0.80;;;;;;;17.61;36.89;99624.75;5055055;28;20037;-77
2022/04/12 09:26:56;;;;;;;2.30;0.80;;;;;;;17.63;36.29;99619.06;5073854;28;20120;-78
2022/04/12 09:29:30;;;;;;;2.10;0.80;;;;;;;17.55;36.72;99614.97;5075279;28;20028;-79
2022/04/12 09:31:59;;;;;;;2.13;0.70;;;;;;;17.52;36.64;99623.69;5074524;28;20032;-77
2022/04/12 09:34:25;;;;;;;1.83;0.68;;;;;;;17.54;37.28;99624.22;5074277;28;20068;-77
2022/04/12 09:36:50;;;;;;;;;;;;;;;17.65;36.53;99625.91;5073315;28;20532;-78
2022/04/12 09:39:19;;;;;;;1.55;0.60;;;;;;;17.64;37.08;99618.81;5073752;28;19916;-78
2022/04/12 09:41:47;;;;;;;1.30;0.60;;;;;;;17.64;36.61;99613.38;5073353;28;20086;-78
2022/04/12 09:44:17;;;;;;;1.65;0.70;;;;;;;17.67;36.79;99612.81;5055799;28;20028;-78
2022/04/12 09:46:44;;;;;;;2.10;0.70;;;;;;;17.73;36.86;99604.66;5074171;28;20082;-78
2022/04/12 09:49:10;;;;;;;2.35;0.70;;;;;;;17.78;36.61;99607.38;5079652;28;20032;-78
2022/04/12 09:51:38;;;;;;;;;;;;;;;17.86;36.72;99594.03;5076938;28;20426;-77
2022/04/12 09:54:06;;;;;;;1.70;0.60;;;;;;;17.77;37.40;99603.84;5076397;28;19912;-78
2022/04/12 09:56:32;;;;;;;2.00;0.70;;;;;;;17.99;36.21;99601.66;5058703;28;20032;-78
2022/04/12 09:59:00;;;;;;;2.75;0.77;;;;;;;18.04;36.55;99589.94;5077023;28;20036;-78
2022/04/12 10:01:26;;;;;;;2.53;1.00;;;;;;;18.13;36.59;99590.19;5077463;28;20351;-78
2022/04/12 10:03:57;;;;;;;2.13;0.60;;;;;;;18.18;36.54;99591.00;5077717;28;20032;-77
2022/04/12 10:06:28;;;;;;;1.85;0.73;;;;;;;18.25;36.72;99577.91;5077011;28;20037;-83
2022/04/12 10:08:59;;;;;;;1.98;0.80;;;;;;;18.39;36.57;99583.59;5081233;28;20029;-83
2022/04/12 10:11:27;;;;;;;2.03;0.80;;;;;;;18.54;36.20;99574.56;5083144;28;20367;-84
2022/04/12 10:13:53;;;;;;;2.15;0.80;;;;;;;18.77;35.93;99587.63;5082310;28;20060;-85
2022/04/12 10:16:22;;;;;;;;;;;;;;;18.77;35.01;99579.44;5066359;28;20020;-86
2022/04/12 10:18:48;;;;;;;2.42;0.93;;;;;;;18.82;34.68;99573.94;5082446;28;19912;-85
2022/04/12 10:21:14;;;;;;;2.15;0.75;;;;;;;18.89;34.98;99576.38;5082609;28;20084;-85
2022/04/12 10:23:41;;;;;;;;;;;;;;;18.90;35.25;99575.28;5065091;28;20036;-84
2022/04/12 10:26:07;;;;;;;1.73;0.70;;;;;;;19.02;34.96;99571.09;5082426;28;19912;-86
2022/04/12 10:28:34;;;;;;;2.10;0.80;;;;;;;19.31;34.72;99565.78;5081546;28;20028;-85
2022/04/12 10:31:24;;;;;;;2.22;0.77;;;;;;;19.39;33.75;99569.81;5063756;28;20035;-85
2022/04/12 10:34:14;;;;;;;2.22;0.85;;;;;;;19.21;33.52;99571.28;5082073;28;20036;-84
2022/04/12 10:36:55;;;;;;;2.08;0.90;;;;;;;19.25;33.34;99560.59;5081623;28;20059;-85
2022/04/12 10:39:46;;;;;;;3.88;0.80;;;;;;;19.20;33.10;99571.56;5063420;28;20060;-86
2022/04/12 10:42:17;;;;;;;2.10;0.80;;;;;;;19.34;32.74;99575.31;5081005;28;20053;-82
2022/04/12 10:44:52;;;;;;;2.63;0.90;;;;;;;19.41;33.13;99573.06;5081754;28;20107;-85
2022/04/12 10:47:27;;;;;;;1.95;0.90;;;;;;;19.72;32.25;99563.56;5080873;28;20088;-85
2022/04/12 10:49:54;;;;;;;2.28;1.10;;;;;;;19.64;32.73;99564.19;5080285;28;20036;-84
2022/04/12 10:52:31;;;;;;;2.88;1.10;;;;;;;19.67;32.71;99565.53;5062990;28;20028;-85
2022/04/12 10:54:57;;;;;;;1.55;0.60;;;;;;;19.67;32.80;99571.00;5080510;28;20035;-85
2022/04/12 10:57:23;;;;;;;;;;;;;;;19.81;32.40;99568.44;5081483;28;20024;-83
2022/04/12 10:59:51;;;;;;;2.97;1.05;;;;;;;19.67;32.33;99569.09;5079619;28;19995;-84
2022/04/12 11:02:17;;;;;;;1.70;0.73;;;;;;;19.83;31.73;99567.06;5061860;28;20033;-83
2022/04/12 11:04:42;;;;;;;;;;;;;;;19.98;32.18;99568.81;5080707;28;20032;-83
2022/04/12 11:07:09;;;;;;;2.03;0.80;;;;;;;20.04;32.12;99562.22;5080225;28;19916;-81
2022/04/12 11:09:35;;;;;;;2.42;0.90;;;;;;;20.20;32.26;99562.88;5080458;28;20475;-83
2022/04/12 11:12:02;;;;;;;1.88;0.70;;;;;;;20.30;32.12;99568.22;5082241;28;20089;-83
2022/04/12 11:14:36;;;;;;;1.42;0.70;;;;;;;20.15;32.21;99563.75;5082729;28;20052;-84
2022/04/12 11:17:12;;;;;;;1.77;0.77;;;;;;;20.07;32.70;99561.63;5082191;28;20032;-84
2022/04/12 11:19:41;;;;;;;;;;;;;;;20.04;32.34;99564.94;5080403;28;20036;-83
2022/04/12 11:22:10;;;;;;;1.80;0.80;;;;;;;20.14;32.13;99566.75;5061358;28;19951;-83
2022/04/12 11:24:36;;;;;;;3.08;0.90;;;;;;;20.30;31.92;99560.03;5079628;28;20043;-87
2022/04/12 11:27:05;;;;;;;2.20;0.65;;;;;;;20.30;32.08;99560.84;5080418;28;20464;-83
2022/04/12 11:29:32;;;;;;;1.40;0.60;;;;;;;20.32;31.79;99564.09;5079501;28;20039;-83
2022/04/12 11:32:03;;;;;;;2.38;0.80;;;;;;;20.29;31.43;99558.41;5077909;28;20086;-86
2022/04/12 11:34:35;;;;;;;2.53;0.77;;;;;;;20.47;31.99;99551.38;5078855;28;20075;-85
2022/04/12 11:37:03;;;;;;;1.90;0.60;;;;;;;20.68;31.86;99541.84;5078388;28;20032;-86